Time;durP1;ratioP1;P1;durP2;ratioP2;P2;SDS_P1;SDS_P2;PMS_P1;PMS_P2;Temp;Humidity;BMP_temperature;BMP_pressure;BME280_temperature;BME280_humidity;BME280_pressure;Samples;Min_cycle;Max_cycle;Signal;HPM_P1;HPM_P2
2023/12/02 00:02:01;;;;;;;;;;;-0.50;99.90;;;;;;5123046;27;19944;-29
2023/12/02 00:04:28;;;;;;;;;;;-0.30;99.90;;;;;;5109129;27;19959;-30
2023/12/02 00:06:56;;;;;;;;;;;-0.50;99.90;;;;;;5131411;27;19936;-30
2023/12/02 00:09:22;;;;;;;;;;;-0.50;99.90;;;;;;5134186;27;19936;-30
2023/12/02 00:11:49;;;;;;;;;;;-0.40;99.90;;;;;;5116026;27;19955;-30
2023/12/02 00:14:16;;;;;;;;;;;-0.40;99.90;;;;;;5115556;27;20002;-29
2023/12/02 00:16:42;;;;;;;;;;;-0.40;99.90;;;;;;5110439;28;19938;-29
2023/12/02 00:19:09;;;;;;;;;;;-0.40;99.90;;;;;;5125199;27;19992;-30
2023/12/02 00:21:36;;;;;;;;;;;-0.40;99.90;;;;;;5110774;27;19993;-30
2023/12/02 00:24:04;;;;;;;;;;;-0.50;99.90;;;;;;5133455;27;20076;-30
2023/12/02 00:26:31;;;;;;;;;;;-0.50;99.90;;;;;;5115401;27;19940;-30
2023/12/02 00:28:58;;;;;;;;;;;-0.50;99.90;;;;;;5115472;27;20035;-28
2023/12/02 00:31:24;;;;;;;;;;;-0.50;99.90;;;;;;5131175;27;20449;-29
2023/12/02 00:33:51;;;;;;;;;;;-0.50;99.90;;;;;;5109968;27;19986;-29
2023/12/02 00:36:17;;;;;;;;;;;-0.50;99.90;;;;;;5113101;27;19940;-29
2023/12/02 00:38:44;;;;;;;;;;;-0.50;99.90;;;;;;5114586;27;20000;-29
2023/12/02 00:41:12;;;;;;;;;;;-0.50;99.90;;;;;;5114346;27;20383;-30
2023/12/02 00:43:39;;;;;;;;;;;-0.50;99.90;;;;;;5113985;28;19970;-29
2023/12/02 00:46:06;;;;;;;;;;;-0.40;99.90;;;;;;5133468;27;20400;-30
2023/12/02 00:48:33;;;;;;;;;;;-0.50;99.90;;;;;;5133350;27;19939;-29
2023/12/02 00:50:59;;;;;;;;;;;-0.50;99.90;;;;;;5114759;27;19946;-29
2023/12/02 00:53:26;;;;;;;;;;;-0.40;99.90;;;;;;5132754;27;20012;-30
2023/12/02 00:55:53;;;;;;;;;;;-0.50;99.90;;;;;;5114165;27;19944;-30
2023/12/02 00:58:21;;;;;;;;;;;-0.50;99.90;;;;;;5115360;27;19945;-30
2023/12/02 01:00:47;;;;;;;;;;;-0.50;99.90;;;;;;5114678;27;19936;-29
2023/12/02 01:03:14;;;;;;;;;;;-0.40;99.90;;;;;;5115063;27;20348;-30
2023/12/02 01:05:40;;;;;;;;;;;-0.50;99.90;;;;;;5128580;27;19950;-29
2023/12/02 01:08:07;;;;;;;;;;;-0.50;99.90;;;;;;5114983;27;20320;-30
2023/12/02 01:10:34;;;;;;;;;;;-0.50;99.90;;;;;;5115149;27;19939;-30
2023/12/02 01:13:00;;;;;;;;;;;-0.40;99.90;;;;;;5091561;28;20457;-29
2023/12/02 01:15:28;;;;;;;;;;;-0.50;99.90;;;;;;5094581;28;19982;-29
2023/12/02 01:17:55;;;;;;;;;;;-0.50;99.90;;;;;;5090878;28;20397;-30
2023/12/02 01:20:22;;;;;;;;;;;-0.50;99.90;;;;;;5090910;28;19990;-29
2023/12/02 01:22:48;;;;;;;;;;;-0.60;99.90;;;;;;5091847;28;19945;-30
2023/12/02 01:25:15;;;;;;;;;;;-0.50;99.90;;;;;;5091817;28;19956;-31
2023/12/02 01:27:42;;;;;;;;;;;-0.50;99.90;;;;;;5087581;28;20388;-30
2023/12/02 01:30:08;;;;;;;;;;;-0.40;99.90;;;;;;5089363;28;19944;-30
2023/12/02 01:32:37;;;;;;;;;;;-0.40;99.90;;;;;;5090357;28;19951;-30
2023/12/02 01:35:04;;;;;;;;;;;-0.40;99.90;;;;;;5091548;28;19941;-30
2023/12/02 01:37:30;;;;;;;;;;;-0.40;99.90;;;;;;5089340;28;19967;-30
2023/12/02 01:39:57;;;;;;;;;;;-0.50;99.90;;;;;;5091587;28;19946;-30
2023/12/02 01:42:23;;;;;;;;;;;-0.40;99.90;;;;;;5090413;28;19990;-30
2023/12/02 01:44:50;;;;;;;;;;;-0.40;99.90;;;;;;5091950;28;20042;-30
2023/12/02 01:47:17;;;;;;;;;;;-0.40;99.90;;;;;;5081585;28;20409;-30
2023/12/02 01:49:45;;;;;;;;;;;-0.40;99.90;;;;;;5086519;28;19951;-29
2023/12/02 01:52:12;;;;;;;;;;;-0.30;99.90;;;;;;5087301;28;19993;-29
2023/12/02 01:54:38;;;;;;;;;;;-0.30;99.90;;;;;;5091374;28;20354;-30
2023/12/02 01:57:08;;;;;;;;;;;-0.40;99.90;;;;;;5085784;28;19992;-30
2023/12/02 01:59:35;;;;;;;;;;;-0.40;99.90;;;;;;5084974;28;19942;-30
2023/12/02 02:02:01;;;;;;;;;;;-0.40;99.90;;;;;;5094466;28;19944;-29
2023/12/02 02:04:28;;;;;;;;;;;-0.40;99.90;;;;;;5094786;28;20007;-30
2023/12/02 02:06:56;;;;;;;;;;;-0.40;99.90;;;;;;5094695;28;19995;-30
2023/12/02 02:09:22;;;;;;;;;;;-0.40;99.90;;;;;;5083952;28;19995;-30
2023/12/02 02:11:49;;;;;;;;;;;-0.40;99.90;;;;;;5116657;27;20016;-30
2023/12/02 02:14:16;;;;;;;;;;;-0.40;99.90;;;;;;5135875;27;20311;-30
2023/12/02 02:16:43;;;;;;;;;;;-0.40;99.90;;;;;;5123882;27;19981;-30
2023/12/02 02:19:09;;;;;;;;;;;-0.40;99.90;;;;;;5112548;27;19969;-30
2023/12/02 02:21:37;;;;;;;;;;;-0.40;99.90;;;;;;5112103;27;19943;-30
2023/12/02 02:24:04;;;;;;;;;;;-0.40;99.90;;;;;;5127516;27;20059;-30
2023/12/02 02:26:31;;;;;;;;;;;-0.40;99.90;;;;;;5108684;27;19991;-29
2023/12/02 02:28:57;;;;;;;;;;;-0.40;99.90;;;;;;5115782;27;19943;-30
2023/12/02 02:31:24;;;;;;;;;;;-0.40;99.90;;;;;;5117698;27;19981;-29
2023/12/02 02:33:50;;;;;;;;;;;-0.30;99.90;;;;;;5117763;27;19971;-30
2023/12/02 02:36:22;;;;;;;;;;;-0.30;99.90;;;;;;5134697;27;19940;-30
2023/12/02 02:38:50;;;;;;;;;;;-0.30;99.90;;;;;;5113267;27;19939;-30
2023/12/02 02:41:17;;;;;;;;;;;-0.40;99.90;;;;;;5122560;27;19983;-31
2023/12/02 02:43:44;;;;;;;;;;;-0.40;99.90;;;;;;5118502;27;19943;-30
2023/12/02 02:46:10;;;;;;;;;;;-0.30;99.90;;;;;;5115527;27;19943;-30
2023/12/02 02:48:37;;;;;;;;;;;-0.30;99.90;;;;;;5128526;27;20372;-30
2023/12/02 02:51:04;;;;;;;;;;;-0.40;99.90;;;;;;5121050;27;19986;-30
2023/12/02 02:53:30;;;;;;;;;;;-0.30;99.90;;;;;;5112907;27;20379;-29
2023/12/02 02:55:58;;;;;;;;;;;-0.30;99.90;;;;;;5115856;27;20009;-29
2023/12/02 02:58:25;;;;;;;;;;;-0.40;99.90;;;;;;5102822;27;19937;-29
2023/12/02 03:00:52;;;;;;;;;;;-0.40;99.90;;;;;;5107852;27;20600;-30
2023/12/02 03:03:19;;;;;;;;;;;-0.30;99.90;;;;;;5121674;27;20015;-30
2023/12/02 03:05:45;;;;;;;;;;;-0.40;99.90;;;;;;5125748;27;19932;-30
2023/12/02 03:08:12;;;;;;;;;;;-0.40;99.90;;;;;;5116118;27;19994;-30
2023/12/02 03:10:39;;;;;;;;;;;-0.40;99.90;;;;;;5115110;27;20354;-30
2023/12/02 03:13:07;;;;;;;;;;;-0.40;99.90;;;;;;5122797;27;19940;-30
2023/12/02 03:15:33;;;;;;;;;;;-0.40;99.90;;;;;;5104619;27;19990;-30
2023/12/02 03:18:00;;;;;;;;;;;-0.40;99.90;;;;;;5114310;27;19944;-29
2023/12/02 03:20:26;;;;;;;;;;;-0.40;99.90;;;;;;5111970;27;19946;-29
2023/12/02 03:22:54;;;;;;;;;;;-0.40;99.90;;;;;;5121967;27;19970;-29
2023/12/02 03:25:20;;;;;;;;;;;-0.40;99.90;;;;;;5130100;27;19966;-29
2023/12/02 03:27:47;;;;;;;;;;;-0.40;99.90;;;;;;5113189;27;20011;-30
2023/12/02 03:30:15;;;;;;;;;;;-0.40;99.90;;;;;;5131073;27;20340;-29
2023/12/02 03:32:42;;;;;;;;;;;-0.40;99.90;;;;;;5121272;27;20026;-30
2023/12/02 03:35:08;;;;;;;;;;;-0.40;99.90;;;;;;5112561;27;20435;-30
2023/12/02 03:37:38;;;;;;;;;;;-0.40;99.90;;;;;;5116181;27;19940;-30
2023/12/02 03:40:05;;;;;;;;;;;-0.40;99.90;;;;;;5114881;27;19979;-29
2023/12/02 03:42:32;;;;;;;;;;;-0.40;99.90;;;;;;5120135;27;19939;-30
2023/12/02 03:44:59;;;;;;;;;;;-0.30;99.90;;;;;;5133089;27;19957;-30
2023/12/02 03:47:27;;;;;;;;;;;-0.40;99.90;;;;;;5116332;27;19940;-29
2023/12/02 03:49:53;;;;;;;;;;;-0.40;99.90;;;;;;5130229;27;20013;-29
2023/12/02 03:52:20;;;;;;;;;;;-0.40;99.90;;;;;;5106832;27;19944;-35
2023/12/02 03:54:47;;;;;;;;;;;-0.40;99.90;;;;;;5115827;27;19944;-29
2023/12/02 03:57:13;;;;;;;;;;;-0.50;99.90;;;;;;5116100;27;19992;-30
2023/12/02 03:59:40;;;;;;;;;;;-0.50;99.90;;;;;;5134206;27;19996;-30
2023/12/02 04:02:07;;;;;;;;;;;-0.50;99.90;;;;;;5109965;27;20424;-30
2023/12/02 04:04:35;;;;;;;;;;;-0.50;99.90;;;;;;5134077;27;20413;-30
2023/12/02 04:07:02;;;;;;;;;;;-0.50;99.90;;;;;;5110529;27;19987;-29
2023/12/02 04:09:28;;;;;;;;;;;-0.50;99.90;;;;;;5132315;27;19940;-30
2023/12/02 04:11:55;;;;;;;;;;;-0.50;99.90;;;;;;5133318;27;19959;-30
2023/12/02 04:14:22;;;;;;;;;;;-0.60;99.90;;;;;;5116706;27;19943;-30
2023/12/02 04:16:48;;;;;;;;;;;-0.50;99.90;;;;;;5123046;27;19935;-29
2023/12/02 04:19:15;;;;;;;;;;;-0.60;99.90;;;;;;5134492;27;19936;-30
2023/12/02 04:21:44;;;;;;;;;;;-0.50;99.90;;;;;;5115851;27;20452;-30
2023/12/02 04:24:11;;;;;;;;;;;-0.60;99.90;;;;;;5131447;27;20006;-30
2023/12/02 04:26:37;;;;;;;;;;;-0.60;99.90;;;;;;5114739;27;20460;-30
2023/12/02 04:29:04;;;;;;;;;;;-0.50;99.90;;;;;;5133327;27;20466;-30
2023/12/02 04:31:30;;;;;;;;;;;-0.50;99.90;;;;;;5113774;27;19950;-31
2023/12/02 04:33:57;;;;;;;;;;;-0.60;99.90;;;;;;5115306;27;19997;-30
2023/12/02 04:36:24;;;;;;;;;;;-0.60;99.90;;;;;;5134210;27;19943;-30
2023/12/02 04:38:52;;;;;;;;;;;-0.60;99.90;;;;;;5114129;27;19945;-29
2023/12/02 04:41:19;;;;;;;;;;;-0.60;99.90;;;;;;5114806;27;19947;-30
2023/12/02 04:43:46;;;;;;;;;;;-0.60;99.90;;;;;;5115139;27;20407;-30
2023/12/02 04:46:12;;;;;;;;;;;-0.60;99.90;;;;;;5113975;27;19955;-30
2023/12/02 04:48:39;;;;;;;;;;;-0.50;99.90;;;;;;5132792;27;21264;-30
2023/12/02 04:51:06;;;;;;;;;;;-0.50;99.90;;;;;;5115965;27;19941;-29
2023/12/02 04:53:33;;;;;;;;;;;-0.50;99.90;;;;;;5129092;27;20383;-29
2023/12/02 04:56:01;;;;;;;;;;;-0.50;99.90;;;;;;5115399;27;20018;-31
2023/12/02 04:58:27;;;;;;;;;;;-0.60;99.90;;;;;;5132816;27;19939;-29
2023/12/02 05:00:54;;;;;;;;;;;-0.50;99.90;;;;;;5115010;27;19997;-29
2023/12/02 05:03:21;;;;;;;;;;;-0.50;99.90;;;;;;5112174;27;20406;-30
2023/12/02 05:05:47;;;;;;;;;;;-0.50;99.90;;;;;;5111000;27;19956;-29
2023/12/02 05:08:14;;;;;;;;;;;-0.50;99.90;;;;;;5114856;27;19993;-30
2023/12/02 05:10:40;;;;;;;;;;;-0.50;99.90;;;;;;5121130;27;20306;-29
2023/12/02 05:13:08;;;;;;;;;;;-0.50;99.90;;;;;;5132922;27;19939;-29
2023/12/02 05:15:35;;;;;;;;;;;-0.50;99.90;;;;;;5132888;27;19942;-30
2023/12/02 05:18:02;;;;;;;;;;;-0.50;99.90;;;;;;5106804;28;19986;-30
2023/12/02 05:20:29;;;;;;;;;;;-0.50;99.90;;;;;;5131502;27;19936;-30
2023/12/02 05:22:55;;;;;;;;;;;-0.50;99.90;;;;;;5112443;28;20441;-30
2023/12/02 05:25:22;;;;;;;;;;;-0.50;99.90;;;;;;5114834;28;19997;-30
2023/12/02 05:27:49;;;;;;;;;;;-0.60;99.90;;;;;;5105733;28;20024;-30
2023/12/02 05:30:17;;;;;;;;;;;-0.60;99.90;;;;;;5112346;28;20317;-29
2023/12/02 05:32:43;;;;;;;;;;;-0.50;99.90;;;;;;5102233;28;20343;-30
2023/12/02 05:35:11;;;;;;;;;;;-0.50;99.90;;;;;;5108195;28;19967;-29
2023/12/02 05:37:38;;;;;;;;;;;-0.50;99.90;;;;;;5115352;28;19987;-30
2023/12/02 05:40:05;;;;;;;;;;;-0.60;99.90;;;;;;5132241;28;20395;-29
2023/12/02 05:42:32;;;;;;;;;;;-0.60;99.90;;;;;;5132254;28;19938;-29
2023/12/02 05:44:59;;;;;;;;;;;-0.60;99.90;;;;;;5129101;28;20358;-29
2023/12/02 05:47:27;;;;;;;;;;;-0.60;99.90;;;;;;5113994;28;19941;-29
2023/12/02 05:49:53;;;;;;;;;;;-0.60;99.90;;;;;;5114051;28;19987;-30
2023/12/02 05:52:20;;;;;;;;;;;-0.60;99.90;;;;;;5114770;28;19984;-30
2023/12/02 05:54:46;;;;;;;;;;;-0.60;99.90;;;;;;5131816;28;19978;-29
2023/12/02 05:57:13;;;;;;;;;;;-0.50;99.90;;;;;;5114982;28;20454;-29
2023/12/02 05:59:40;;;;;;;;;;;-0.50;99.90;;;;;;5111149;28;19943;-29
2023/12/02 06:02:06;;;;;;;;;;;-0.60;99.90;;;;;;5108596;28;19950;-31
2023/12/02 06:04:34;;;;;;;;;;;-0.60;99.90;;;;;;5112458;28;19943;-30
2023/12/02 06:07:01;;;;;;;;;;;-0.60;99.90;;;;;;5116648;28;19960;-30
2023/12/02 06:09:28;;;;;;;;;;;-0.60;99.90;;;;;;5132152;28;19988;-30
2023/12/02 06:11:54;;;;;;;;;;;-0.60;99.90;;;;;;5129062;28;20501;-29
2023/12/02 06:14:21;;;;;;;;;;;-0.60;99.90;;;;;;5112074;28;20373;-29
2023/12/02 06:16:48;;;;;;;;;;;-0.60;99.90;;;;;;5123923;28;19988;-29
2023/12/02 06:19:15;;;;;;;;;;;-0.60;99.90;;;;;;5104505;28;19989;-29
2023/12/02 06:21:43;;;;;;;;;;;-0.60;99.90;;;;;;5093929;28;20006;-30
2023/12/02 06:24:10;;;;;;;;;;;-0.60;99.90;;;;;;5118486;28;19947;-30
2023/12/02 06:26:37;;;;;;;;;;;-0.60;99.90;;;;;;5117297;28;20307;-30
2023/12/02 06:29:04;;;;;;;;;;;-0.60;99.90;;;;;;5111407;28;20398;-29
2023/12/02 06:31:30;;;;;;;;;;;-0.60;99.90;;;;;;5129961;28;20351;-29
2023/12/02 06:33:57;;;;;;;;;;;-0.60;99.90;;;;;;5112948;28;20029;-30
2023/12/02 06:36:24;;;;;;;;;;;-0.60;99.90;;;;;;5113575;28;19944;-29
2023/12/02 06:38:52;;;;;;;;;;;-0.60;99.90;;;;;;5115129;28;19975;-29
2023/12/02 06:41:18;;;;;;;;;;;-0.60;99.90;;;;;;5133233;27;19936;-30
2023/12/02 06:43:45;;;;;;;;;;;-0.60;99.90;;;;;;5116718;27;19941;-30
2023/12/02 06:46:19;;;;;;;;;;;-0.70;99.90;;;;;;5117945;27;20011;-28
2023/12/02 06:48:47;;;;;;;;;;;-0.70;99.90;;;;;;5136437;27;20023;-29
2023/12/02 06:51:13;;;;;;;;;;;-0.70;99.90;;;;;;5135550;27;20336;-30
2023/12/02 06:53:40;;;;;;;;;;;-0.70;99.90;;;;;;5118332;27;19984;-30
2023/12/02 06:56:17;;;;;;;;;;;-0.70;99.90;;;;;;5136242;27;19942;-30
2023/12/02 06:58:44;;;;;;;;;;;-0.70;99.90;;;;;;5118047;27;19940;-29
2023/12/02 07:01:11;;;;;;;;;;;-0.70;99.90;;;;;;5116943;27;19949;-29
2023/12/02 07:03:38;;;;;;;;;;;-0.70;99.90;;;;;;5117758;27;19995;-30
2023/12/02 07:06:04;;;;;;;;;;;-0.70;99.90;;;;;;5117758;27;20004;-30
2023/12/02 07:08:31;;;;;;;;;;;-0.70;99.90;;;;;;5117124;27;19943;-30
2023/12/02 07:10:58;;;;;;;;;;;-0.70;99.90;;;;;;5117903;27;19964;-31
2023/12/02 07:13:26;;;;;;;;;;;-0.70;99.90;;;;;;5136033;27;19937;-30
2023/12/02 07:15:53;;;;;;;;;;;-0.80;99.90;;;;;;5135948;27;19941;-30
2023/12/02 07:18:19;;;;;;;;;;;-0.80;99.90;;;;;;5133287;27;19943;-30
2023/12/02 07:20:46;;;;;;;;;;;-0.80;99.90;;;;;;5126598;27;20387;-30
2023/12/02 07:23:12;;;;;;;;;;;-0.80;99.90;;;;;;5127654;27;19999;-30
2023/12/02 07:25:39;;;;;;;;;;;-0.80;99.90;;;;;;5125795;27;19960;-29
2023/12/02 07:28:06;;;;;;;;;;;-0.80;99.90;;;;;;5134709;27;19986;-30
2023/12/02 07:30:34;;;;;;;;;;;-0.80;99.90;;;;;;5135394;27;20415;-30
2023/12/02 07:33:00;;;;;;;;;;;-0.80;99.90;;;;;;5126514;27;19948;-30
2023/12/02 07:35:27;;;;;;;;;;;-0.90;99.90;;;;;;5116445;27;19943;-30
2023/12/02 07:37:53;;;;;;;;;;;-0.80;99.90;;;;;;5125815;27;20456;-30
2023/12/02 07:40:20;;;;;;;;;;;-0.80;99.90;;;;;;5134471;27;20014;-30
2023/12/02 07:42:47;;;;;;;;;;;-0.80;99.90;;;;;;5134324;27;19941;-30
2023/12/02 07:45:13;;;;;;;;;;;-0.80;99.90;;;;;;5134593;27;19941;-30
2023/12/02 07:47:40;;;;;;;;;;;-0.80;99.90;;;;;;5135064;27;19965;-30
2023/12/02 07:50:08;;;;;;;;;;;-0.80;99.90;;;;;;5116728;27;19955;-30
2023/12/02 07:52:35;;;;;;;;;;;-0.80;99.90;;;;;;5116475;27;19957;-31
2023/12/02 07:55:01;;;;;;;;;;;-0.80;99.90;;;;;;5125150;27;20362;-30
2023/12/02 07:57:28;;;;;;;;;;;-0.80;99.90;;;;;;5096094;28;20452;-31
2023/12/02 07:59:55;;;;;;;;;;;-0.80;99.90;;;;;;5113428;27;19939;-30
2023/12/02 08:02:22;;;;;;;;;;;-0.80;99.90;;;;;;5116714;27;20000;-30
2023/12/02 08:04:50;;;;;;;;;;;-0.80;99.90;;;;;;5115808;27;19943;-30
2023/12/02 08:07:18;;;;;;;;;;;-0.80;99.90;;;;;;5114758;27;20010;-30
2023/12/02 08:09:45;;;;;;;;;;;-0.70;99.90;;;;;;5128407;27;19936;-30
2023/12/02 08:12:11;;;;;;;;;;;-0.80;99.90;;;;;;5119256;27;20434;-30
2023/12/02 08:14:38;;;;;;;;;;;-0.80;99.90;;;;;;5119561;27;20385;-30
2023/12/02 08:17:05;;;;;;;;;;;-0.80;99.90;;;;;;5114478;27;20386;-29
2023/12/02 08:19:31;;;;;;;;;;;-0.80;99.90;;;;;;5110168;27;20282;-30
2023/12/02 08:21:59;;;;;;;;;;;-0.70;99.90;;;;;;5114662;27;19950;-30
2023/12/02 08:24:26;;;;;;;;;;;-0.70;99.90;;;;;;5107300;27;20382;-29
2023/12/02 08:26:52;;;;;;;;;;;-0.70;99.90;;;;;;5131731;27;20057;-30
2023/12/02 08:29:19;;;;;;;;;;;-0.70;99.90;;;;;;5104565;27;19994;-30
2023/12/02 08:31:46;;;;;;;;;;;-0.70;99.90;;;;;;5115130;27;19975;-30
2023/12/02 08:34:12;;;;;;;;;;;-0.70;99.90;;;;;;5125215;27;20297;-30
2023/12/02 08:36:41;;;;;;;;;;;-0.70;99.90;;;;;;5101044;27;19977;-29
2023/12/02 08:39:09;;;;;;;;;;;-0.60;99.90;;;;;;5133388;27;20031;-30
2023/12/02 08:41:36;;;;;;;;;;;-0.60;99.90;;;;;;5114095;27;19939;-29
2023/12/02 08:44:03;;;;;;;;;;;-0.60;99.90;;;;;;5114872;27;20308;-30
2023/12/02 08:46:30;;;;;;;;;;;-0.60;99.90;;;;;;5131479;27;19996;-30
2023/12/02 08:48:56;;;;;;;;;;;-0.60;99.90;;;;;;5105206;28;19951;-29
2023/12/02 08:51:23;;;;;;;;;;;-0.60;99.90;;;;;;5129329;27;19964;-29
2023/12/02 08:53:50;;;;;;;;;;;-0.50;99.90;;;;;;5116130;27;19987;-29
2023/12/02 08:56:18;;;;;;;;;;;-0.50;99.90;;;;;;5110947;27;19940;-29
2023/12/02 08:58:44;;;;;;;;;;;-0.50;99.90;;;;;;5121710;27;19943;-30
2023/12/02 09:01:11;;;;;;;;;;;-0.50;99.90;;;;;;5098472;27;20348;-29
2023/12/02 09:03:37;;;;;;;;;;;-0.40;99.90;;;;;;5116616;27;20390;-30
2023/12/02 09:06:04;;;;;;;;;;;-0.40;99.90;;;;;;5106645;28;20010;-29
2023/12/02 09:08:31;;;;;;;;;;;-0.40;99.90;;;;;;5118062;27;20063;-29
2023/12/02 09:10:58;;;;;;;;;;;-0.40;99.90;;;;;;5114977;27;19923;-30
2023/12/02 09:13:32;;;;;;;;;;;-0.40;99.90;;;;;;5108738;27;19940;-30
2023/12/02 09:15:58;;;;;;;;;;;-0.40;99.90;;;;;;5111914;28;19988;-30
2023/12/02 09:18:27;;;;;;;;;;;-0.40;99.90;;;;;;5095240;28;19938;-30
2023/12/02 09:20:55;;;;;;;;;;;-0.40;99.90;;;;;;5107922;28;19964;-30
2023/12/02 09:23:22;;;;;;;;;;;-0.30;99.90;;;;;;5109114;27;19928;-30
2023/12/02 09:25:50;;;;;;;;;;;-0.30;99.90;;;;;;5109353;27;19940;-30
2023/12/02 09:28:26;;;;;;;;;;;-0.30;99.90;;;;;;5101115;28;20465;-30
2023/12/02 09:30:56;;;;;;;;;;;-0.20;99.90;;;;;;5109798;28;20502;-30
2023/12/02 09:33:23;;;;;;;;;;;-0.20;99.90;;;;;;5107958;28;19947;-29
2023/12/02 09:35:51;;;;;;;;;;;-0.10;99.90;;;;;;5125010;28;19941;-28
2023/12/02 09:38:18;;;;;;;;;;;-0.20;99.90;;;;;;5124785;28;19944;-29
2023/12/02 09:41:04;;;;;;;;;;;-0.20;99.90;;;;;;5125424;28;20342;-29
2023/12/02 09:43:32;;;;;;;;;;;-0.10;99.90;;;;;;5127081;28;19999;-29
2023/12/02 09:46:17;;;;;;;;;;;-0.10;99.90;;;;;;5113933;28;20394;-30
2023/12/02 09:48:49;;;;;;;;;;;0.00;99.90;;;;;;5114230;28;19990;-29
2023/12/02 09:51:18;;;;;;;;;;;0.20;99.90;;;;;;5133399;28;19936;-31
2023/12/02 09:53:46;;;;;;;;;;;0.20;99.90;;;;;;5132692;28;19989;-29
2023/12/02 09:56:13;;;;;;;;;;;0.30;99.90;;;;;;5113420;28;20025;-30
2023/12/02 09:58:42;;;;;;;;;;;0.40;99.90;;;;;;5130526;28;19934;-29
2023/12/02 10:01:08;;;;;;;;;;;0.40;99.90;;;;;;5110618;28;19948;-29
2023/12/02 10:03:47;;;;;;;;;;;0.50;99.90;;;;;;5112881;28;19951;-30
2023/12/02 10:06:18;;;;;;;;;;;0.60;99.90;;;;;;5103250;28;19940;-28
2023/12/02 10:08:48;;;;;;;;;;;0.70;99.90;;;;;;5112452;28;19967;-29
2023/12/02 10:11:15;;;;;;;;;;;0.90;99.90;;;;;;5132653;28;19963;-29
2023/12/02 10:13:44;;;;;;;;;;;0.90;99.90;;;;;;5113356;28;19934;-30
2023/12/02 10:16:13;;;;;;;;;;;1.00;99.90;;;;;;5132923;27;19939;-29
2023/12/02 10:18:40;;;;;;;;;;;1.00;99.90;;;;;;5118595;27;19939;-29
2023/12/02 10:21:08;;;;;;;;;;;1.10;99.90;;;;;;5112633;27;19943;-30
2023/12/02 10:23:37;;;;;;;;;;;1.10;99.90;;;;;;5134694;27;19999;-29
2023/12/02 10:26:05;;;;;;;;;;;1.20;99.90;;;;;;5135620;27;20385;-29
2023/12/02 10:28:33;;;;;;;;;;;1.30;99.90;;;;;;5116928;27;19940;-30
2023/12/02 10:30:59;;;;;;;;;;;1.40;99.90;;;;;;5117365;27;20039;-29
2023/12/02 10:33:27;;;;;;;;;;;1.40;99.90;;;;;;5115499;27;19936;-30
2023/12/02 10:35:56;;;;;;;;;;;1.50;99.90;;;;;;5120213;27;20031;-29
2023/12/02 10:38:28;;;;;;;;;;;1.50;99.90;;;;;;5117909;27;19992;-29
2023/12/02 10:40:56;;;;;;;;;;;1.40;99.90;;;;;;5115395;27;19935;-30
2023/12/02 10:43:24;;;;;;;;;;;1.40;99.90;;;;;;5104760;28;19949;-30
2023/12/02 10:45:50;;;;;;;;;;;1.40;99.90;;;;;;5112799;27;20159;-29
2023/12/02 10:48:17;;;;;;;;;;;1.50;99.90;;;;;;5106775;28;19959;-29
2023/12/02 10:50:43;;;;;;;;;;;1.40;99.90;;;;;;5126844;27;20579;-29
2023/12/02 10:53:12;;;;;;;;;;;1.40;99.90;;;;;;5112350;27;19941;-29
2023/12/02 10:55:40;;;;;;;;;;;1.40;99.90;;;;;;5121455;27;20408;-29
2023/12/02 10:58:07;;;;;;;;;;;1.40;99.90;;;;;;5115663;27;20006;-31
2023/12/02 11:00:34;;;;;;;;;;;1.50;99.90;;;;;;5107191;27;20503;-31
2023/12/02 11:03:03;;;;;;;;;;;1.60;99.90;;;;;;5128323;27;19941;-29
2023/12/02 11:05:31;;;;;;;;;;;1.70;99.90;;;;;;5116865;27;20012;-29
2023/12/02 11:08:00;;;;;;;;;;;1.80;99.90;;;;;;5134998;27;19956;-29
2023/12/02 11:10:32;;;;;;;;;;;1.80;99.90;;;;;;5117623;27;19992;-30
2023/12/02 11:13:02;;;;;;;;;;;1.80;99.90;;;;;;5116352;27;19959;-30
2023/12/02 11:15:29;;;;;;;;;;;1.80;99.90;;;;;;5135415;27;20353;-30
2023/12/02 11:17:58;;;;;;;;;;;1.80;99.90;;;;;;5116624;27;20396;-29
2023/12/02 11:20:26;;;;;;;;;;;1.80;99.90;;;;;;5097249;28;19942;-29
2023/12/02 11:23:04;;;;;;;;;;;1.80;99.90;;;;;;5115520;27;19936;-30
2023/12/02 11:25:34;;;;;;;;;;;1.80;99.90;;;;;;5117958;27;20440;-29
2023/12/02 11:28:04;;;;;;;;;;;1.90;99.90;;;;;;5116334;27;19953;-30
2023/12/02 11:30:49;;;;;;;;;;;2.00;99.90;;;;;;5135524;27;19980;-29
2023/12/02 11:33:20;;;;;;;;;;;2.00;99.90;;;;;;5104514;27;20442;-30
2023/12/02 11:35:48;;;;;;;;;;;2.00;99.90;;;;;;5096853;28;19948;-30
2023/12/02 11:38:17;;;;;;;;;;;2.00;99.90;;;;;;5097426;27;19940;-29
2023/12/02 11:40:46;;;;;;;;;;;2.10;99.90;;;;;;5131354;27;19944;-30
2023/12/02 11:43:16;;;;;;;;;;;2.10;99.90;;;;;;5134660;27;19943;-30
2023/12/02 11:45:44;;;;;;;;;;;2.10;99.90;;;;;;5103791;28;19992;-29
2023/12/02 11:48:12;;;;;;;;;;;2.10;99.90;;;;;;5096796;28;20308;-29
2023/12/02 11:50:42;;;;;;;;;;;2.10;99.90;;;;;;5117574;27;19937;-30
2023/12/02 11:53:13;;;;;;;;;;;2.20;99.90;;;;;;5113400;27;20380;-29
2023/12/02 11:55:42;;;;;;;;;;;2.10;99.90;;;;;;5126421;27;19978;-29
2023/12/02 11:58:11;;;;;;;;;;;2.10;99.90;;;;;;5126594;27;20310;-30
2023/12/02 12:00:44;;;;;;;;;;;2.20;99.90;;;;;;5107502;28;19938;-30
2023/12/02 12:03:15;;;;;;;;;;;2.20;99.90;;;;;;5118337;27;20369;-30
2023/12/02 12:05:43;;;;;;;;;;;2.20;99.90;;;;;;5115157;27;19944;-30
2023/12/02 12:08:11;;;;;;;;;;;2.20;99.90;;;;;;5113447;27;19953;-30
2023/12/02 12:10:38;;;;;;;;;;;2.20;99.90;;;;;;5115331;27;20353;-29
2023/12/02 12:13:05;;;;;;;;;;;2.20;99.90;;;;;;5114356;28;19956;-30
2023/12/02 12:15:31;;;;;;;;;;;2.20;99.90;;;;;;5120636;27;19955;-30
2023/12/02 12:17:59;;;;;;;;;;;2.20;99.90;;;;;;5130217;27;19985;-30
2023/12/02 12:20:26;;;;;;;;;;;2.20;99.90;;;;;;5109546;27;20360;-30
2023/12/02 12:22:53;;;;;;;;;;;2.20;99.90;;;;;;5115364;27;19943;-30
2023/12/02 12:25:21;;;;;;;;;;;2.30;99.90;;;;;;5131851;27;20007;-30
2023/12/02 12:27:48;;;;;;;;;;;2.20;99.90;;;;;;5107980;27;19950;-30
2023/12/02 12:30:15;;;;;;;;;;;2.30;99.90;;;;;;5129981;27;20028;-30
2023/12/02 12:32:42;;;;;;;;;;;2.30;99.90;;;;;;5134444;27;19989;-29
2023/12/02 12:35:11;;;;;;;;;;;2.20;99.90;;;;;;5116240;27;20469;-30
2023/12/02 12:37:38;;;;;;;;;;;2.20;99.90;;;;;;5116077;27;19940;-30
2023/12/02 12:40:06;;;;;;;;;;;2.30;99.90;;;;;;5115458;27;20000;-30
2023/12/02 12:42:32;;;;;;;;;;;2.30;99.90;;;;;;5133911;27;20465;-29
2023/12/02 12:44:59;;;;;;;;;;;2.30;99.90;;;;;;5129444;27;19940;-30
2023/12/02 12:47:27;;;;;;;;;;;2.30;99.90;;;;;;5095463;28;20356;-30
2023/12/02 12:49:54;;;;;;;;;;;2.30;99.90;;;;;;5096020;28;19965;-30
2023/12/02 12:52:22;;;;;;;;;;;2.30;99.90;;;;;;5109091;28;20396;-30
2023/12/02 12:54:50;;;;;;;;;;;2.40;99.90;;;;;;5095445;28;20002;-30
2023/12/02 12:57:19;;;;;;;;;;;2.40;99.90;;;;;;5095659;28;20280;-30
2023/12/02 12:59:46;;;;;;;;;;;2.40;99.90;;;;;;5102644;27;19969;-30
2023/12/02 13:02:17;;;;;;;;;;;2.40;99.90;;;;;;5132696;27;19941;-30
2023/12/02 13:04:45;;;;;;;;;;;2.50;99.90;;;;;;5115453;27;19941;-30
2023/12/02 13:07:12;;;;;;;;;;;2.50;99.90;;;;;;5096881;28;19941;-31
2023/12/02 13:09:42;;;;;;;;;;;2.50;99.90;;;;;;5104618;27;19951;-30
2023/12/02 13:12:09;;;;;;;;;;;2.50;99.90;;;;;;5115112;27;20011;-31
2023/12/02 13:14:39;;;;;;;;;;;2.50;99.90;;;;;;5133534;27;20383;-30
2023/12/02 13:17:05;;;;;;;;;;;2.50;99.90;;;;;;5131531;27;19961;-31
2023/12/02 13:19:32;;;;;;;;;;;2.60;99.90;;;;;;5115150;27;19943;-30
2023/12/02 13:22:00;;;;;;;;;;;2.50;99.90;;;;;;5133708;27;19940;-30
2023/12/02 13:24:26;;;;;;;;;;;2.60;99.90;;;;;;5133524;27;19940;-30
2023/12/02 13:26:54;;;;;;;;;;;2.50;99.90;;;;;;5114745;28;19988;-31
2023/12/02 13:29:22;;;;;;;;;;;2.60;99.90;;;;;;5114931;28;19963;-30
2023/12/02 13:31:48;;;;;;;;;;;2.60;99.90;;;;;;5115280;28;19943;-30
2023/12/02 13:34:18;;;;;;;;;;;2.50;99.90;;;;;;5114490;28;19956;-31
2023/12/02 13:36:46;;;;;;;;;;;2.50;99.90;;;;;;5114687;28;20391;-31
2023/12/02 13:39:16;;;;;;;;;;;2.60;99.90;;;;;;5115202;28;19994;-31
2023/12/02 13:41:47;;;;;;;;;;;2.50;99.90;;;;;;5115414;28;19996;-30
2023/12/02 13:44:16;;;;;;;;;;;2.50;99.90;;;;;;5115353;28;19948;-30
2023/12/02 13:46:48;;;;;;;;;;;2.50;99.90;;;;;;5130395;28;20011;-30
2023/12/02 13:49:16;;;;;;;;;;;2.50;99.90;;;;;;5096460;28;19964;-30
2023/12/02 13:51:46;;;;;;;;;;;2.40;99.90;;;;;;5096600;28;20012;-30
2023/12/02 13:54:14;;;;;;;;;;;2.40;99.90;;;;;;5117031;28;19986;-31
2023/12/02 13:56:47;;;;;;;;;;;2.40;99.90;;;;;;5110615;27;19986;-30
2023/12/02 13:59:17;;;;;;;;;;;2.40;99.90;;;;;;5137460;27;20014;-30
2023/12/02 14:01:45;;;;;;;;;;;2.30;99.90;;;;;;5135376;27;20353;-30
2023/12/02 14:04:13;;;;;;;;;;;2.30;99.90;;;;;;5137111;27;20000;-31
2023/12/02 14:06:46;;;;;;;;;;;2.30;99.90;;;;;;5118943;27;19946;-29
2023/12/02 14:09:13;;;;;;;;;;;2.30;99.90;;;;;;5136500;27;20052;-31
2023/12/02 14:11:42;;;;;;;;;;;2.30;99.90;;;;;;5118744;27;19963;-30
2023/12/02 14:14:12;;;;;;;;;;;2.30;99.90;;;;;;5117023;27;19947;-30
2023/12/02 14:16:44;;;;;;;;;;;2.20;99.90;;;;;;5117253;27;20351;-29
2023/12/02 14:19:34;;;;;;;;;;;2.20;99.90;;;;;;5137244;27;20035;-31
2023/12/02 14:22:06;;;;;;;;;;;2.20;99.90;;;;;;5098659;27;20261;-30
2023/12/02 14:24:50;;;;;;;;;;;2.20;99.90;;;;;;5112429;27;20403;-30